Impacts TAF Board
For situational awareness. Not to be used for flight planning purposes.
IDs:

KSAT - San Antonio Intl, TX, US

Issued at 0532 UTC 19 Aug 2019
Updated at 0619 UTC 19 Aug 2019
Potential Impact None Slight Moderate High
Time0551Z 19/07Z 19/08Z 19/09Z 19/10Z 19/11Z 19/12Z 19/13Z 19/14Z 19/15Z 19/16Z 19/17Z 19/18Z 19/19Z>>
Type OBS PRVL PRVL PRVL PRVL PRVL PRVL PRVL PRVL PRVL PRVL PRVL PRVL PRVL
VIS 10 >6 >6 >6 >6 >6 >6 >6 >6 >6 >6 >6 >6 >6
CIG -- -- 15 15 15 15 15 15 15 -- -- -- -- --
Cover FEW FEW BKN BKN BKN BKN BKN BKN BKN SCT SCT SCT SCT SCT
FltCat VFR VFR MVFR MVFR MVFR MVFR MVFR MVFR MVFR VFR VFR VFR VFR VFR
WX -- -- -- -- -- -- -- -- -- -- -- -- -- --
WDir 140 150 160 160 160 160 160 160 160 180 180 180 180 180
WSpd 10 11 9 9 9 9 9 9 9 12 12 12 12 12
WGst 18 -- -- -- -- -- -- -- -- -- -- -- -- --
Raw TAF
KSAT 190532Z 1906/2012 15011KT P6SM FEW250
  FM190800 16009KT P6SM BKN015 BKN025
  FM191500 18012KT P6SM SCT025
  FM200000 14012KT P6SM FEW100


Raw METAR
KSAT 190551Z 14010G18KT 10SM FEW250 27/22 A2996 RMK AO2 SLP125 T02720222 10367 20272 403780261 51021
KSAT 190451Z 14009KT 10SM FEW250 28/22 A2996 RMK AO2 SLP125 T02780217
KSAT 190351Z 15014KT 10SM FEW250 29/22 A2993 RMK AO2 SLP117 T02890217

METAR Board
Radar Display
Forecast Discussion
For situational awareness. Not to be used for flight planning purposes.